OAE3876 KBWI-LBSF
Flight info
| Callsign | OAE3876 |
|---|---|
| Flight time | N/A |
| Altitude | 37000 |
| Route | DUKPN1 BROSS Q419 RBV DCT EBONY N687B NEEKO/M083F390 DCT 54N050W 56N040W 57N030W 57N020W DCT PIKIL DCT SOVED/N0470F390 DCT IBROD DCT GOW DCT TLA DCT ERKIT N110 USEKA/N0483F410 N110 DOLAS DCT NAVPI DCT SOGPO DCT ONUNE DCT BADGO DCT SWALM DCT VELIS DCT OKG DCT PEPIK DCT ERGUZ DCT PADGU DCT OSTOV M748 GOL |
| Aircraft | B772/H-SDE2E3FGHIJ5LORVWXY/LB1D1 |
Departure
| Time | 2026-04-28 04:42 |
|---|---|
| Airport | Baltimore/Washington International Thurgood Marshall Airport (KBWI) |
Arrival
| Time | N/A |
|---|---|
| Airport | Sofia Airport (LBSF) |
| Time | Latitude | Longitude | Altitude | Speed | Heading |
|---|---|---|---|---|---|
| 2026-04-28 04:15 | 39.18641 | -76.66584 | 168 ft | 0 kts | 36° |
| 2026-04-28 04:28 | 39.18637 | -76.66587 | 167 ft | 2 kts | 38° |
| 2026-04-28 04:28 | 39.18625 | -76.66601 | 167 ft | 2 kts | 60° |
| 2026-04-28 04:28 | 39.18617 | -76.66620 | 166 ft | 2 kts | 71° |
| 2026-04-28 04:29 | 39.18616 | -76.66641 | 166 ft | 2 kts | 110° |
| 2026-04-28 04:29 | 39.18622 | -76.66660 | 167 ft | 2 kts | 129° |
| 2026-04-28 04:29 | 39.18634 | -76.66674 | 168 ft | 2 kts | 149° |
| 2026-04-28 04:29 | 39.18648 | -76.66685 | 168 ft | 2 kts | 151° |
| 2026-04-28 04:30 | 39.18657 | -76.66691 | 169 ft | 1 kts | 148° |
| 2026-04-28 04:30 | 39.18658 | -76.66692 | 169 ft | 0 kts | 147° |
| 2026-04-28 04:32 | 39.18656 | -76.66691 | 169 ft | 4 kts | 147° |
| 2026-04-28 04:32 | 39.18577 | -76.66639 | 164 ft | 13 kts | 155° |
| 2026-04-28 04:32 | 39.18541 | -76.66559 | 162 ft | 8 kts | 74° |
| 2026-04-28 04:32 | 39.18578 | -76.66479 | 161 ft | 12 kts | 66° |
| 2026-04-28 04:33 | 39.18558 | -76.66413 | 160 ft | 8 kts | 135° |
| 2026-04-28 04:33 | 39.18463 | -76.66323 | 159 ft | 22 kts | 144° |
| 2026-04-28 04:33 | 39.18349 | -76.66206 | 156 ft | 20 kts | 142° |
| 2026-04-28 04:33 | 39.18242 | -76.66108 | 153 ft | 17 kts | 143° |
| 2026-04-28 04:34 | 39.18161 | -76.66031 | 154 ft | 14 kts | 143° |
| 2026-04-28 04:34 | 39.18077 | -76.65981 | 156 ft | 14 kts | 184° |
| 2026-04-28 04:34 | 39.17975 | -76.66053 | 158 ft | 21 kts | 213° |
| 2026-04-28 04:34 | 39.17849 | -76.66160 | 160 ft | 22 kts | 213° |
| 2026-04-28 04:35 | 39.17722 | -76.66268 | 159 ft | 23 kts | 213° |
| 2026-04-28 04:35 | 39.17578 | -76.66386 | 158 ft | 25 kts | 211° |
| 2026-04-28 04:35 | 39.17452 | -76.66534 | 158 ft | 25 kts | 250° |
| 2026-04-28 04:35 | 39.17459 | -76.66755 | 157 ft | 24 kts | 275° |
| 2026-04-28 04:36 | 39.17471 | -76.66953 | 157 ft | 22 kts | 275° |
| 2026-04-28 04:36 | 39.17553 | -76.67114 | 156 ft | 22 kts | 324° |
| 2026-04-28 04:36 | 39.17679 | -76.67230 | 154 ft | 22 kts | 323° |
| 2026-04-28 04:36 | 39.17801 | -76.67343 | 154 ft | 22 kts | 324° |
| 2026-04-28 04:37 | 39.17927 | -76.67460 | 152 ft | 22 kts | 324° |
| 2026-04-28 04:37 | 39.18049 | -76.67574 | 151 ft | 22 kts | 323° |
| 2026-04-28 04:37 | 39.18174 | -76.67691 | 151 ft | 22 kts | 324° |
| 2026-04-28 04:37 | 39.18298 | -76.67803 | 150 ft | 22 kts | 324° |
| 2026-04-28 04:38 | 39.18417 | -76.67915 | 151 ft | 20 kts | 324° |
| 2026-04-28 04:38 | 39.18504 | -76.67997 | 151 ft | 13 kts | 324° |
| 2026-04-28 04:38 | 39.18559 | -76.68063 | 152 ft | 9 kts | 297° |
| 2026-04-28 04:38 | 39.18554 | -76.68130 | 151 ft | 10 kts | 240° |
| 2026-04-28 04:39 | 39.18498 | -76.68159 | 149 ft | 8 kts | 166° |
| 2026-04-28 04:39 | 39.18463 | -76.68132 | 149 ft | 0 kts | 146° |
| 2026-04-28 04:40 | 39.18460 | -76.68130 | 149 ft | 6 kts | 146° |
| 2026-04-28 04:41 | 39.18304 | -76.67985 | 150 ft | 57 kts | 144° |
| 2026-04-28 04:41 | 39.17803 | -76.67520 | 148 ft | 119 kts | 144° |
| 2026-04-28 04:41 | 39.16988 | -76.66757 | 202 ft | 164 kts | 144° |
| 2026-04-28 04:41 | 39.16059 | -76.65893 | 734 ft | 168 kts | 140° |
| 2026-04-28 04:42 | 39.15234 | -76.64770 | 1404 ft | 175 kts | 126° |
| 2026-04-28 04:42 | 39.14696 | -76.63371 | 2129 ft | 179 kts | 115° |
| 2026-04-28 04:42 | 39.14268 | -76.61805 | 2553 ft | 191 kts | 112° |
| 2026-04-28 04:42 | 39.13792 | -76.60126 | 2838 ft | 208 kts | 113° |
| 2026-04-28 04:43 | 39.13256 | -76.58330 | 3211 ft | 219 kts | 115° |
| 2026-04-28 04:43 | 39.12732 | -76.56776 | 3629 ft | 226 kts | 115° |
| 2026-04-28 04:43 | 39.12085 | -76.54827 | 4011 ft | 242 kts | 114° |
| 2026-04-28 04:43 | 39.11416 | -76.52789 | 4528 ft | 251 kts | 114° |
| 2026-04-28 04:44 | 39.10723 | -76.50751 | 5317 ft | 250 kts | 114° |
| 2026-04-28 04:44 | 39.10037 | -76.48666 | 5962 ft | 257 kts | 113° |
| 2026-04-28 04:44 | 39.09354 | -76.46493 | 6425 ft | 266 kts | 108° |
| 2026-04-28 04:44 | 39.09067 | -76.44097 | 6977 ft | 275 kts | 90° |
| 2026-04-28 04:45 | 39.09361 | -76.41657 | 7676 ft | 278 kts | 73° |
| 2026-04-28 04:45 | 39.10086 | -76.39320 | 8338 ft | 283 kts | 65° |
| 2026-04-28 04:45 | 39.10956 | -76.37009 | 8902 ft | 291 kts | 63° |
| 2026-04-28 04:45 | 39.11846 | -76.34645 | 9471 ft | 298 kts | 65° |
| 2026-04-28 04:46 | 39.12610 | -76.32034 | 10085 ft | 305 kts | 71° |
| 2026-04-28 04:46 | 39.13165 | -76.29396 | 10721 ft | 309 kts | 76° |
| 2026-04-28 04:46 | 39.13597 | -76.26592 | 10930 ft | 331 kts | 78° |
| 2026-04-28 04:46 | 39.13996 | -76.23614 | 11099 ft | 353 kts | 79° |
| 2026-04-28 04:47 | 39.14427 | -76.20399 | 11278 ft | 374 kts | 78° |
| 2026-04-28 04:47 | 39.14891 | -76.17039 | 11785 ft | 386 kts | 78° |
| 2026-04-28 04:47 | 39.15379 | -76.13610 | 12424 ft | 393 kts | 78° |
| 2026-04-28 04:47 | 39.15883 | -76.10126 | 13244 ft | 396 kts | 78° |
| 2026-04-28 04:48 | 39.16395 | -76.06627 | 14085 ft | 400 kts | 78° |
| 2026-04-28 04:48 | 39.16913 | -76.03089 | 14787 ft | 404 kts | 78° |
| 2026-04-28 04:48 | 39.17439 | -75.99511 | 15482 ft | 410 kts | 78° |
| 2026-04-28 04:48 | 39.17971 | -75.95876 | 16196 ft | 415 kts | 78° |
| 2026-04-28 04:49 | 39.18531 | -75.92225 | 16887 ft | 415 kts | 74° |
| 2026-04-28 04:49 | 39.19586 | -75.88736 | 17433 ft | 421 kts | 58° |
| 2026-04-28 04:49 | 39.21283 | -75.85674 | 18179 ft | 421 kts | 45° |
| 2026-04-28 04:49 | 39.23425 | -75.83139 | 18848 ft | 419 kts | 37° |
| 2026-04-28 04:50 | 39.25664 | -75.80758 | 19403 ft | 424 kts | 37° |
| 2026-04-28 04:50 | 39.27956 | -75.78322 | 20092 ft | 427 kts | 37° |
| 2026-04-28 04:50 | 39.30244 | -75.75864 | 20867 ft | 429 kts | 37° |
| 2026-04-28 04:50 | 39.32532 | -75.73380 | 21596 ft | 431 kts | 37° |
| 2026-04-28 04:51 | 39.34834 | -75.70861 | 22220 ft | 435 kts | 37° |
| 2026-04-28 04:51 | 39.37152 | -75.68313 | 22825 ft | 439 kts | 37° |
| 2026-04-28 04:51 | 39.39492 | -75.65734 | 23422 ft | 443 kts | 37° |
| 2026-04-28 04:51 | 39.41847 | -75.63139 | 23980 ft | 447 kts | 36° |
| 2026-04-28 04:52 | 39.44222 | -75.60520 | 24473 ft | 449 kts | 36° |
| 2026-04-28 04:52 | 39.46610 | -75.57894 | 24956 ft | 451 kts | 36° |
| 2026-04-28 04:52 | 39.49005 | -75.55264 | 25454 ft | 454 kts | 36° |
| 2026-04-28 04:52 | 39.51424 | -75.52606 | 25913 ft | 456 kts | 36° |
| 2026-04-28 04:53 | 39.53845 | -75.49941 | 26349 ft | 458 kts | 36° |
| 2026-04-28 04:53 | 39.56280 | -75.47257 | 26782 ft | 461 kts | 35° |
| 2026-04-28 04:53 | 39.58725 | -75.44561 | 27179 ft | 463 kts | 35° |
| 2026-04-28 04:53 | 39.61158 | -75.41874 | 27593 ft | 465 kts | 35° |
| 2026-04-28 04:54 | 39.63623 | -75.39149 | 28061 ft | 465 kts | 34° |
| 2026-04-28 04:54 | 39.66084 | -75.36429 | 28501 ft | 466 kts | 34° |
| 2026-04-28 04:54 | 39.68559 | -75.33693 | 28836 ft | 468 kts | 34° |
| 2026-04-28 04:54 | 39.71043 | -75.30945 | 29124 ft | 471 kts | 34° |
| 2026-04-28 04:55 | 39.73546 | -75.28172 | 29413 ft | 473 kts | 34° |
| 2026-04-28 04:55 | 39.76051 | -75.25393 | 29701 ft | 474 kts | 34° |
| 2026-04-28 04:55 | 39.78555 | -75.22568 | 29977 ft | 477 kts | 36° |
| 2026-04-28 04:55 | 39.80906 | -75.19485 | 30262 ft | 484 kts | 41° |
| 2026-04-28 04:56 | 39.83107 | -75.16183 | 30580 ft | 484 kts | 43° |
| 2026-04-28 04:56 | 39.85294 | -75.12851 | 30898 ft | 483 kts | 43° |
| 2026-04-28 04:56 | 39.87478 | -75.09533 | 31196 ft | 482 kts | 42° |
| 2026-04-28 04:56 | 39.89667 | -75.06234 | 31510 ft | 481 kts | 42° |
| 2026-04-28 04:57 | 39.91848 | -75.02966 | 32002 ft | 474 kts | 41° |
| 2026-04-28 04:57 | 39.93922 | -74.99859 | 32437 ft | 471 kts | 41° |
| 2026-04-28 04:57 | 39.96029 | -74.96702 | 32627 ft | 473 kts | 41° |
| 2026-04-28 04:57 | 39.98059 | -74.93281 | 32765 ft | 483 kts | 48° |
| 2026-04-28 04:58 | 39.99786 | -74.89543 | 32998 ft | 487 kts | 52° |
| 2026-04-28 04:58 | 40.01524 | -74.85788 | 33182 ft | 483 kts | 48° |
| 2026-04-28 04:58 | 40.03411 | -74.82170 | 33427 ft | 481 kts | 46° |
| 2026-04-28 04:58 | 40.05357 | -74.78587 | 33721 ft | 479 kts | 46° |
| 2026-04-28 04:59 | 40.07266 | -74.75060 | 33988 ft | 480 kts | 47° |
| 2026-04-28 04:59 | 40.09145 | -74.71444 | 34230 ft | 481 kts | 47° |
| 2026-04-28 04:59 | 40.10993 | -74.67793 | 34464 ft | 482 kts | 48° |
| 2026-04-28 04:59 | 40.12830 | -74.64130 | 34666 ft | 482 kts | 48° |
| 2026-04-28 05:00 | 40.14669 | -74.60465 | 34876 ft | 482 kts | 48° |
| 2026-04-28 05:00 | 40.16511 | -74.56811 | 35092 ft | 482 kts | 48° |
| 2026-04-28 05:00 | 40.18359 | -74.53152 | 35334 ft | 481 kts | 48° |
| 2026-04-28 05:00 | 40.20263 | -74.49572 | 35567 ft | 476 kts | 44° |
| 2026-04-28 05:01 | 40.22379 | -74.46295 | 35777 ft | 468 kts | 38° |
| 2026-04-28 05:01 | 40.24613 | -74.43201 | 35964 ft | 467 kts | 37° |
| 2026-04-28 05:01 | 40.26854 | -74.40142 | 36202 ft | 466 kts | 37° |
| 2026-04-28 05:01 | 40.29105 | -74.37076 | 36426 ft | 466 kts | 37° |
| 2026-04-28 05:02 | 40.31350 | -74.34004 | 36633 ft | 466 kts | 37° |
| 2026-04-28 05:02 | 40.33569 | -74.30945 | 36986 ft | 463 kts | 37° |
| 2026-04-28 05:02 | 40.35785 | -74.27876 | 37191 ft | 463 kts | 37° |
| 2026-04-28 05:03 | 40.40200 | -74.21739 | 37295 ft | 467 kts | 38° |
| 2026-04-28 05:03 | 40.44640 | -74.15536 | 37298 ft | 465 kts | 38° |
| 2026-04-28 05:04 | 40.49054 | -74.09348 | 37303 ft | 463 kts | 38° |
| 2026-04-28 05:04 | 40.53447 | -74.03186 | 37297 ft | 462 kts | 38° |
| 2026-04-28 05:05 | 40.57707 | -73.97201 | 37310 ft | 461 kts | 38° |
| 2026-04-28 05:05 | 40.62076 | -73.91047 | 37293 ft | 458 kts | 38° |
| 2026-04-28 05:06 | 40.66419 | -73.84917 | 37288 ft | 456 kts | 38° |
| 2026-04-28 05:06 | 40.70744 | -73.78803 | 37294 ft | 455 kts | 38° |
| 2026-04-28 05:07 | 40.75025 | -73.72739 | 37257 ft | 455 kts | 38° |
| 2026-04-28 05:07 | 40.79335 | -73.66613 | 37305 ft | 455 kts | 38° |
| 2026-04-28 05:08 | 40.83650 | -73.60478 | 37292 ft | 455 kts | 38° |
| 2026-04-28 05:08 | 40.87945 | -73.54359 | 37284 ft | 453 kts | 38° |
| 2026-04-28 05:09 | 40.92227 | -73.48242 | 37277 ft | 452 kts | 38° |
| 2026-04-28 05:09 | 40.96488 | -73.42143 | 37282 ft | 451 kts | 38° |
| 2026-04-28 05:10 | 41.00731 | -73.36060 | 37308 ft | 451 kts | 38° |
| 2026-04-28 05:10 | 41.04953 | -73.29994 | 37340 ft | 451 kts | 38° |
| 2026-04-28 05:11 | 41.09201 | -73.23876 | 37315 ft | 451 kts | 38° |
| 2026-04-28 05:11 | 41.13438 | -73.17759 | 37309 ft | 450 kts | 38° |
| 2026-04-28 05:12 | 41.17662 | -73.11650 | 37278 ft | 449 kts | 38° |
| 2026-04-28 05:12 | 41.21877 | -73.05542 | 37270 ft | 448 kts | 38° |
| 2026-04-28 05:13 | 41.25402 | -73.00426 | 37273 ft | 448 kts | 38° |
| 2026-04-28 05:13 | 41.30171 | -72.93482 | 37304 ft | 448 kts | 38° |
| 2026-04-28 05:14 | 41.34345 | -72.87371 | 37284 ft | 445 kts | 38° |
| 2026-04-28 05:14 | 41.38488 | -72.81300 | 37268 ft | 441 kts | 38° |
| 2026-04-28 05:15 | 41.42620 | -72.75260 | 37265 ft | 439 kts | 38° |
| 2026-04-28 05:15 | 41.46707 | -72.69290 | 37267 ft | 439 kts | 38° |
| 2026-04-28 05:16 | 41.50813 | -72.63270 | 37276 ft | 439 kts | 38° |
| 2026-04-28 05:16 | 41.54923 | -72.57221 | 37280 ft | 441 kts | 38° |
| 2026-04-28 05:17 | 41.61095 | -72.48106 | 37274 ft | 440 kts | 38° |
| 2026-04-28 05:17 | 41.65196 | -72.42032 | 37272 ft | 440 kts | 38° |
| 2026-04-28 05:18 | 41.69270 | -72.35989 | 37255 ft | 440 kts | 38° |
| 2026-04-28 05:18 | 41.73366 | -72.29901 | 37274 ft | 440 kts | 38° |
| 2026-04-28 05:19 | 41.77454 | -72.23811 | 37309 ft | 440 kts | 38° |
| 2026-04-28 05:19 | 41.81537 | -72.17714 | 37284 ft | 438 kts | 38° |
| 2026-04-28 05:20 | 41.85601 | -72.11634 | 37293 ft | 437 kts | 38° |
| 2026-04-28 05:20 | 41.89650 | -72.05564 | 37281 ft | 436 kts | 38° |
| 2026-04-28 05:21 | 41.93587 | -71.99652 | 37282 ft | 435 kts | 38° |
| 2026-04-28 05:21 | 41.97619 | -71.93586 | 37284 ft | 435 kts | 38° |
| 2026-04-28 05:22 | 42.01621 | -71.87554 | 37293 ft | 435 kts | 38° |
| 2026-04-28 05:22 | 42.05646 | -71.81470 | 37287 ft | 435 kts | 38° |
| 2026-04-28 05:23 | 42.09641 | -71.75420 | 37286 ft | 434 kts | 38° |
| 2026-04-28 05:23 | 42.13652 | -71.69335 | 37286 ft | 434 kts | 38° |
| 2026-04-28 05:24 | 42.17656 | -71.63247 | 37282 ft | 434 kts | 38° |
| 2026-04-28 05:24 | 42.21659 | -71.57149 | 37282 ft | 434 kts | 38° |
| 2026-04-28 05:25 | 42.25640 | -71.51072 | 37287 ft | 434 kts | 39° |
| 2026-04-28 05:25 | 42.29644 | -71.44945 | 37285 ft | 435 kts | 39° |
| 2026-04-28 05:26 | 42.32971 | -71.39844 | 37284 ft | 435 kts | 39° |
| 2026-04-28 05:26 | 42.36966 | -71.33709 | 37277 ft | 435 kts | 39° |
| 2026-04-28 05:27 | 42.40967 | -71.27551 | 37279 ft | 435 kts | 39° |
| 2026-04-28 05:27 | 42.44966 | -71.21382 | 37295 ft | 436 kts | 39° |
| 2026-04-28 05:28 | 42.48961 | -71.15208 | 37294 ft | 436 kts | 39° |
| 2026-04-28 05:28 | 42.52959 | -71.09018 | 37297 ft | 436 kts | 39° |
| 2026-04-28 05:29 | 42.56958 | -71.02811 | 37298 ft | 437 kts | 39° |
| 2026-04-28 05:29 | 42.60844 | -70.96766 | 37297 ft | 437 kts | 39° |
| 2026-04-28 05:30 | 42.64846 | -70.90529 | 37298 ft | 438 kts | 40° |
| 2026-04-28 05:30 | 42.68847 | -70.84283 | 37301 ft | 440 kts | 40° |
| 2026-04-28 05:31 | 42.72866 | -70.77992 | 37285 ft | 441 kts | 40° |
| 2026-04-28 05:31 | 42.76892 | -70.71676 | 37288 ft | 442 kts | 40° |
| 2026-04-28 05:32 | 42.80923 | -70.65339 | 37284 ft | 443 kts | 41° |
| 2026-04-28 05:32 | 42.84958 | -70.58981 | 37286 ft | 444 kts | 41° |
| 2026-04-28 05:33 | 42.88971 | -70.52645 | 37310 ft | 445 kts | 41° |
| 2026-04-28 05:33 | 42.93027 | -70.46229 | 37307 ft | 447 kts | 42° |
| 2026-04-28 05:34 | 42.97098 | -70.39774 | 37293 ft | 449 kts | 42° |
| 2026-04-28 05:34 | 43.01171 | -70.33299 | 37297 ft | 451 kts | 42° |
| 2026-04-28 05:35 | 43.05257 | -70.26790 | 37303 ft | 451 kts | 42° |
| 2026-04-28 05:35 | 43.09317 | -70.20306 | 37301 ft | 452 kts | 42° |
| 2026-04-28 05:36 | 43.13407 | -70.13764 | 37318 ft | 453 kts | 43° |
| 2026-04-28 05:36 | 43.17504 | -70.07193 | 37303 ft | 454 kts | 43° |
| 2026-04-28 05:37 | 43.21575 | -70.00649 | 37310 ft | 453 kts | 43° |
| 2026-04-28 05:37 | 43.25570 | -69.94212 | 37306 ft | 453 kts | 43° |
| 2026-04-28 05:38 | 43.29659 | -69.87610 | 37308 ft | 453 kts | 43° |
| 2026-04-28 05:38 | 43.33736 | -69.81012 | 37308 ft | 452 kts | 43° |
| 2026-04-28 05:39 | 43.37776 | -69.74459 | 37329 ft | 452 kts | 44° |
| 2026-04-28 05:39 | 43.41839 | -69.67858 | 37319 ft | 453 kts | 44° |
| 2026-04-28 05:40 | 43.45911 | -69.61224 | 37324 ft | 454 kts | 44° |
| 2026-04-28 05:40 | 43.49987 | -69.54569 | 37319 ft | 455 kts | 44° |
| 2026-04-28 05:41 | 43.54069 | -69.47888 | 37327 ft | 457 kts | 45° |
| 2026-04-28 05:41 | 43.58181 | -69.41145 | 37329 ft | 462 kts | 45° |
| 2026-04-28 05:42 | 43.62333 | -69.34318 | 37328 ft | 466 kts | 45° |
| 2026-04-28 05:42 | 43.66509 | -69.27434 | 37335 ft | 469 kts | 45° |
| 2026-04-28 05:43 | 43.70677 | -69.20547 | 37321 ft | 471 kts | 45° |
| 2026-04-28 05:43 | 43.74880 | -69.13584 | 37325 ft | 471 kts | 45° |
| 2026-04-28 05:44 | 43.79084 | -69.06603 | 37329 ft | 471 kts | 45° |
| 2026-04-28 05:44 | 43.83180 | -68.99785 | 37340 ft | 470 kts | 46° |
| 2026-04-28 05:45 | 43.87354 | -68.92824 | 37341 ft | 472 kts | 46° |
| 2026-04-28 05:45 | 43.91546 | -68.85814 | 37338 ft | 473 kts | 46° |
| 2026-04-28 05:46 | 43.95715 | -68.78826 | 37337 ft | 473 kts | 46° |
| 2026-04-28 05:46 | 43.99917 | -68.71766 | 37334 ft | 474 kts | 47° |
| 2026-04-28 05:47 | 44.04121 | -68.64686 | 37331 ft | 475 kts | 47° |
| 2026-04-28 05:47 | 44.08332 | -68.57574 | 37327 ft | 476 kts | 47° |
| 2026-04-28 05:48 | 44.12534 | -68.50462 | 37346 ft | 476 kts | 47° |
| 2026-04-28 05:48 | 44.16748 | -68.43309 | 37334 ft | 477 kts | 47° |
| 2026-04-28 05:49 | 44.20933 | -68.36190 | 37337 ft | 478 kts | 47° |
| 2026-04-28 05:49 | 44.25147 | -68.29003 | 37346 ft | 477 kts | 47° |
| 2026-04-28 05:50 | 44.29354 | -68.21811 | 37338 ft | 479 kts | 48° |
| 2026-04-28 05:50 | 44.33539 | -68.14637 | 37361 ft | 480 kts | 48° |
| 2026-04-28 05:51 | 44.37756 | -68.07391 | 37355 ft | 481 kts | 48° |
| 2026-04-28 05:51 | 44.41982 | -68.00112 | 37362 ft | 482 kts | 48° |
| 2026-04-28 05:52 | 44.46100 | -67.92999 | 37352 ft | 483 kts | 49° |
| 2026-04-28 05:52 | 44.50336 | -67.85664 | 37352 ft | 484 kts | 49° |
| 2026-04-28 05:53 | 44.54569 | -67.78317 | 37347 ft | 484 kts | 49° |
| 2026-04-28 05:53 | 44.58767 | -67.71011 | 37347 ft | 484 kts | 49° |
| 2026-04-28 05:54 | 44.62989 | -67.63644 | 37349 ft | 484 kts | 49° |
| 2026-04-28 05:54 | 44.67202 | -67.56275 | 37348 ft | 484 kts | 49° |
| 2026-04-28 05:55 | 44.71414 | -67.48887 | 37364 ft | 484 kts | 49° |
| 2026-04-28 05:55 | 44.75621 | -67.41490 | 37348 ft | 484 kts | 49° |
| 2026-04-28 05:56 | 44.79828 | -67.34073 | 37350 ft | 485 kts | 49° |
| 2026-04-28 05:56 | 44.84032 | -67.26641 | 37352 ft | 485 kts | 49° |
| 2026-04-28 05:57 | 44.88235 | -67.19195 | 37354 ft | 485 kts | 49° |
| 2026-04-28 05:57 | 44.92820 | -67.12315 | 37344 ft | 483 kts | 39° |
| 2026-04-28 05:58 | 44.97916 | -67.06136 | 37349 ft | 482 kts | 38° |
| 2026-04-28 05:58 | 45.03019 | -66.99996 | 37360 ft | 483 kts | 39° |
| 2026-04-28 05:59 | 45.07994 | -66.93942 | 37356 ft | 483 kts | 39° |
| 2026-04-28 05:59 | 45.13069 | -66.87706 | 37358 ft | 483 kts | 39° |
| 2026-04-28 06:00 | 45.18138 | -66.81444 | 37360 ft | 483 kts | 39° |
| 2026-04-28 06:00 | 45.23174 | -66.75224 | 37366 ft | 483 kts | 39° |
| 2026-04-28 06:01 | 45.28241 | -66.68949 | 37359 ft | 483 kts | 39° |
| 2026-04-28 06:01 | 45.33304 | -66.62661 | 37369 ft | 483 kts | 39° |
| 2026-04-28 06:02 | 45.38362 | -66.56362 | 37372 ft | 483 kts | 39° |
| 2026-04-28 06:02 | 45.43380 | -66.50099 | 37366 ft | 483 kts | 39° |
| 2026-04-28 06:03 | 45.48429 | -66.43782 | 37366 ft | 482 kts | 39° |
| 2026-04-28 06:03 | 45.53463 | -66.37467 | 37377 ft | 482 kts | 39° |
| 2026-04-28 06:04 | 45.58507 | -66.31124 | 37360 ft | 483 kts | 40° |
| 2026-04-28 06:04 | 45.63556 | -66.24759 | 37368 ft | 485 kts | 40° |
| 2026-04-28 06:05 | 45.68619 | -66.18362 | 37371 ft | 486 kts | 40° |
| 2026-04-28 06:05 | 45.73683 | -66.11946 | 37363 ft | 487 kts | 40° |
| 2026-04-28 06:06 | 45.78758 | -66.05500 | 37361 ft | 487 kts | 40° |
| 2026-04-28 06:06 | 45.83686 | -65.99223 | 37362 ft | 487 kts | 40° |
| 2026-04-28 06:07 | 45.88717 | -65.92802 | 37366 ft | 488 kts | 40° |
| 2026-04-28 06:07 | 45.93782 | -65.86320 | 37358 ft | 487 kts | 40° |
| 2026-04-28 06:08 | 45.98842 | -65.79827 | 37359 ft | 487 kts | 40° |
| 2026-04-28 06:08 | 46.03872 | -65.73357 | 37367 ft | 486 kts | 40° |
| 2026-04-28 06:09 | 46.08915 | -65.66854 | 37355 ft | 486 kts | 40° |
| 2026-04-28 06:09 | 46.13950 | -65.60344 | 37356 ft | 486 kts | 40° |
| 2026-04-28 06:10 | 46.18978 | -65.53826 | 37363 ft | 485 kts | 40° |
| 2026-04-28 06:10 | 46.23992 | -65.47311 | 37360 ft | 485 kts | 40° |
| 2026-04-28 06:11 | 46.28999 | -65.40788 | 37359 ft | 485 kts | 40° |
| 2026-04-28 06:11 | 46.34012 | -65.34239 | 37363 ft | 485 kts | 40° |
| 2026-04-28 06:12 | 46.39010 | -65.27694 | 37364 ft | 485 kts | 40° |
| 2026-04-28 06:12 | 46.44013 | -65.21125 | 37359 ft | 485 kts | 40° |
| 2026-04-28 06:13 | 46.48974 | -65.14594 | 37361 ft | 485 kts | 40° |
| 2026-04-28 06:13 | 46.53969 | -65.08003 | 37371 ft | 485 kts | 40° |
| 2026-04-28 06:14 | 46.58122 | -65.02508 | 37361 ft | 485 kts | 40° |
| 2026-04-28 06:14 | 46.62979 | -64.96068 | 37361 ft | 485 kts | 40° |
| 2026-04-28 06:15 | 46.67963 | -64.89441 | 37363 ft | 485 kts | 41° |
| 2026-04-28 06:15 | 46.73767 | -64.81703 | 37358 ft | 486 kts | 41° |
| 2026-04-28 06:16 | 46.77254 | -64.77043 | 37364 ft | 486 kts | 41° |
| 2026-04-28 06:16 | 46.82211 | -64.70403 | 37362 ft | 486 kts | 41° |
| 2026-04-28 06:17 | 46.87199 | -64.63704 | 37366 ft | 487 kts | 41° |
| 2026-04-28 06:18 | 46.94667 | -64.53641 | 37358 ft | 487 kts | 41° |
| 2026-04-28 06:18 | 46.99642 | -64.46915 | 37359 ft | 487 kts | 41° |
| 2026-04-28 06:19 | 47.04586 | -64.40214 | 37368 ft | 486 kts | 41° |
| 2026-04-28 06:19 | 47.09554 | -64.33461 | 37363 ft | 486 kts | 41° |
| 2026-04-28 06:20 | 47.14508 | -64.26710 | 37365 ft | 486 kts | 41° |
| 2026-04-28 06:20 | 47.19459 | -64.19945 | 37368 ft | 485 kts | 41° |
| 2026-04-28 06:21 | 47.24368 | -64.13221 | 37379 ft | 485 kts | 41° |
| 2026-04-28 06:21 | 47.29302 | -64.06442 | 37376 ft | 485 kts | 41° |
| 2026-04-28 06:22 | 47.34125 | -63.99800 | 37360 ft | 485 kts | 41° |
| 2026-04-28 06:22 | 47.39025 | -63.93034 | 37378 ft | 485 kts | 41° |
| 2026-04-28 06:23 | 47.43939 | -63.86230 | 37379 ft | 484 kts | 41° |
| 2026-04-28 06:23 | 47.48854 | -63.79405 | 37360 ft | 484 kts | 41° |
| 2026-04-28 06:24 | 47.53767 | -63.72565 | 37361 ft | 484 kts | 41° |
| 2026-04-28 06:24 | 47.58667 | -63.65726 | 37372 ft | 484 kts | 41° |
| 2026-04-28 06:25 | 47.63563 | -63.58873 | 37373 ft | 484 kts | 41° |
| 2026-04-28 06:25 | 47.68456 | -63.52005 | 37374 ft | 483 kts | 41° |
| 2026-04-28 06:26 | 47.73311 | -63.45173 | 37378 ft | 483 kts | 41° |
| 2026-04-28 06:26 | 47.78191 | -63.38288 | 37372 ft | 483 kts | 41° |
| 2026-04-28 06:27 | 47.83069 | -63.31386 | 37374 ft | 483 kts | 41° |
| 2026-04-28 06:27 | 47.87937 | -63.24479 | 37375 ft | 483 kts | 42° |
| 2026-04-28 06:28 | 47.92764 | -63.17611 | 37374 ft | 483 kts | 42° |
| 2026-04-28 06:28 | 47.97619 | -63.10686 | 37371 ft | 483 kts | 42° |
| 2026-04-28 06:29 | 48.02449 | -63.03776 | 37373 ft | 483 kts | 42° |
| 2026-04-28 06:29 | 48.07183 | -62.96987 | 37387 ft | 483 kts | 42° |
| 2026-04-28 06:30 | 48.12025 | -62.90022 | 37375 ft | 483 kts | 42° |
| 2026-04-28 06:30 | 48.16867 | -62.83039 | 37376 ft | 483 kts | 42° |
| 2026-04-28 06:31 | 48.21700 | -62.76049 | 37377 ft | 483 kts | 42° |
| 2026-04-28 06:31 | 48.26502 | -62.69086 | 37392 ft | 483 kts | 42° |
| 2026-04-28 06:32 | 48.31329 | -62.62066 | 37380 ft | 483 kts | 42° |
| 2026-04-28 06:32 | 48.36147 | -62.55040 | 37378 ft | 482 kts | 42° |
| 2026-04-28 06:33 | 48.40960 | -62.48002 | 37378 ft | 482 kts | 42° |
| 2026-04-28 06:33 | 48.45762 | -62.40961 | 37384 ft | 482 kts | 42° |
| 2026-04-28 06:34 | 48.50560 | -62.33906 | 37378 ft | 481 kts | 42° |
| 2026-04-28 06:34 | 48.55348 | -62.26844 | 37384 ft | 481 kts | 42° |
| 2026-04-28 06:35 | 48.60098 | -62.19821 | 37393 ft | 481 kts | 42° |
| 2026-04-28 06:35 | 48.64869 | -62.12747 | 37387 ft | 480 kts | 43° |
| 2026-04-28 06:36 | 48.69632 | -62.05663 | 37382 ft | 480 kts | 43° |
| 2026-04-28 06:36 | 48.74282 | -61.98730 | 37385 ft | 480 kts | 43° |
| 2026-04-28 06:37 | 48.79034 | -61.91624 | 37395 ft | 480 kts | 43° |
| 2026-04-28 06:37 | 48.83786 | -61.84500 | 37384 ft | 480 kts | 43° |
| 2026-04-28 06:38 | 48.88531 | -61.77363 | 37382 ft | 480 kts | 43° |
| 2026-04-28 06:38 | 48.93274 | -61.70211 | 37382 ft | 480 kts | 43° |
| 2026-04-28 06:39 | 48.98006 | -61.63055 | 37394 ft | 480 kts | 43° |
| 2026-04-28 06:39 | 49.02695 | -61.55945 | 37384 ft | 481 kts | 43° |
| 2026-04-28 06:40 | 49.07430 | -61.48744 | 37394 ft | 481 kts | 43° |
| 2026-04-28 06:40 | 49.12174 | -61.41508 | 37389 ft | 482 kts | 43° |
| 2026-04-28 06:41 | 49.16920 | -61.34249 | 37388 ft | 482 kts | 43° |
| 2026-04-28 06:41 | 49.21659 | -61.26979 | 37385 ft | 483 kts | 43° |
| 2026-04-28 06:42 | 49.26366 | -61.19738 | 37383 ft | 483 kts | 43° |
| 2026-04-28 06:42 | 49.31098 | -61.12437 | 37387 ft | 483 kts | 43° |
| 2026-04-28 06:43 | 49.35826 | -61.05122 | 37379 ft | 483 kts | 43° |
| 2026-04-28 06:43 | 49.40430 | -60.97978 | 37385 ft | 483 kts | 43° |
| 2026-04-28 06:44 | 49.45150 | -60.90633 | 37386 ft | 483 kts | 43° |
| 2026-04-28 06:44 | 49.49864 | -60.83274 | 37387 ft | 483 kts | 43° |
| 2026-04-28 06:45 | 49.54581 | -60.75892 | 37389 ft | 483 kts | 43° |
| 2026-04-28 06:45 | 49.59290 | -60.68499 | 37377 ft | 483 kts | 43° |
| 2026-04-28 06:46 | 49.63991 | -60.61098 | 37378 ft | 483 kts | 43° |
| 2026-04-28 06:46 | 49.68656 | -60.53730 | 37377 ft | 483 kts | 43° |
| 2026-04-28 06:47 | 49.73346 | -60.46303 | 37376 ft | 483 kts | 43° |
| 2026-04-28 06:47 | 49.78034 | -60.38856 | 37384 ft | 483 kts | 44° |
| 2026-04-28 06:48 | 49.82716 | -60.31398 | 37392 ft | 483 kts | 44° |
| 2026-04-28 06:48 | 49.87397 | -60.23918 | 37373 ft | 483 kts | 44° |
| 2026-04-28 06:49 | 49.92072 | -60.16426 | 37373 ft | 483 kts | 44° |
| 2026-04-28 06:49 | 49.96713 | -60.08967 | 37374 ft | 483 kts | 44° |
| 2026-04-28 06:50 | 50.01355 | -60.01482 | 37391 ft | 483 kts | 44° |
| 2026-04-28 06:50 | 50.05883 | -59.94161 | 37379 ft | 483 kts | 44° |
| 2026-04-28 06:51 | 50.10536 | -59.86617 | 37383 ft | 483 kts | 44° |
| 2026-04-28 06:51 | 50.15185 | -59.79054 | 37377 ft | 483 kts | 44° |
| 2026-04-28 06:52 | 50.19825 | -59.71484 | 37377 ft | 484 kts | 44° |
| 2026-04-28 06:52 | 50.24488 | -59.63855 | 37375 ft | 485 kts | 44° |
| 2026-04-28 06:53 | 50.29119 | -59.56254 | 37374 ft | 486 kts | 44° |
| 2026-04-28 06:53 | 50.33783 | -59.48577 | 37371 ft | 487 kts | 44° |
| 2026-04-28 06:54 | 50.38449 | -59.40871 | 37379 ft | 488 kts | 44° |
| 2026-04-28 06:54 | 50.43122 | -59.33131 | 37371 ft | 488 kts | 44° |
| 2026-04-28 06:55 | 50.47792 | -59.25372 | 37369 ft | 488 kts | 44° |
| 2026-04-28 06:55 | 50.52449 | -59.17612 | 37369 ft | 488 kts | 44° |
| 2026-04-28 06:56 | 50.57099 | -59.09838 | 37372 ft | 488 kts | 44° |
| 2026-04-28 06:56 | 50.61710 | -59.02105 | 37362 ft | 487 kts | 44° |
| 2026-04-28 06:57 | 50.66223 | -58.94515 | 37364 ft | 487 kts | 44° |
| 2026-04-28 06:57 | 50.70853 | -58.86702 | 37361 ft | 486 kts | 44° |
| 2026-04-28 06:58 | 50.75433 | -58.78951 | 37361 ft | 486 kts | 44° |
| 2026-04-28 06:58 | 50.80042 | -58.71127 | 37362 ft | 486 kts | 44° |
| 2026-04-28 06:59 | 50.84645 | -58.63290 | 37358 ft | 486 kts | 44° |
| 2026-04-28 06:59 | 50.89242 | -58.55438 | 37361 ft | 486 kts | 44° |
| 2026-04-28 07:00 | 50.93840 | -58.47559 | 37362 ft | 487 kts | 44° |
| 2026-04-28 07:00 | 50.98439 | -58.39653 | 37361 ft | 487 kts | 44° |
| 2026-04-28 07:01 | 51.02993 | -58.31801 | 37362 ft | 487 kts | 44° |
| 2026-04-28 07:01 | 51.07579 | -58.23868 | 37374 ft | 487 kts | 44° |
| 2026-04-28 07:02 | 51.12174 | -58.15896 | 37362 ft | 488 kts | 44° |
| 2026-04-28 07:02 | 51.16757 | -58.07917 | 37358 ft | 488 kts | 44° |
| 2026-04-28 07:03 | 51.20559 | -58.01280 | 37356 ft | 488 kts | 44° |
| 2026-04-28 07:03 | 51.25760 | -57.92173 | 37384 ft | 488 kts | 44° |
| 2026-04-28 07:04 | 51.29558 | -57.85499 | 37366 ft | 488 kts | 44° |
| 2026-04-28 07:04 | 51.34119 | -57.77464 | 37360 ft | 488 kts | 44° |
| 2026-04-28 07:05 | 51.38681 | -57.69401 | 37353 ft | 489 kts | 44° |
| 2026-04-28 07:05 | 51.43243 | -57.61313 | 37370 ft | 490 kts | 44° |
| 2026-04-28 07:06 | 51.47810 | -57.53189 | 37364 ft | 491 kts | 44° |
| 2026-04-28 07:06 | 51.52390 | -57.45015 | 37366 ft | 492 kts | 44° |
| 2026-04-28 07:07 | 51.56937 | -57.36873 | 37363 ft | 492 kts | 45° |
| 2026-04-28 07:07 | 51.61512 | -57.28654 | 37380 ft | 493 kts | 45° |
| 2026-04-28 07:08 | 51.66083 | -57.20416 | 37360 ft | 493 kts | 45° |
| 2026-04-28 07:08 | 51.70645 | -57.12166 | 37355 ft | 493 kts | 45° |
| 2026-04-28 07:09 | 51.75201 | -57.03902 | 37360 ft | 493 kts | 45° |
| 2026-04-28 07:09 | 51.79636 | -56.95830 | 37373 ft | 492 kts | 45° |
| 2026-04-28 07:10 | 51.84178 | -56.87537 | 37353 ft | 492 kts | 45° |
| 2026-04-28 07:10 | 51.88713 | -56.79229 | 37346 ft | 492 kts | 45° |
| 2026-04-28 07:11 | 51.93214 | -56.70956 | 37338 ft | 492 kts | 45° |
| 2026-04-28 07:11 | 51.97763 | -56.62567 | 37355 ft | 492 kts | 45° |
| 2026-04-28 07:12 | 52.02227 | -56.54306 | 37335 ft | 492 kts | 45° |
| 2026-04-28 07:12 | 52.06735 | -56.45937 | 37317 ft | 492 kts | 45° |
| 2026-04-28 07:13 | 52.11241 | -56.37546 | 37320 ft | 492 kts | 45° |
| 2026-04-28 07:13 | 52.15738 | -56.29141 | 37328 ft | 492 kts | 45° |
| 2026-04-28 07:14 | 52.20230 | -56.20717 | 37297 ft | 493 kts | 45° |
| 2026-04-28 07:14 | 52.24732 | -56.12247 | 37288 ft | 493 kts | 45° |
| 2026-04-28 07:15 | 52.29195 | -56.03821 | 37279 ft | 493 kts | 45° |
| 2026-04-28 07:15 | 52.33559 | -55.95554 | 37300 ft | 494 kts | 45° |
| 2026-04-28 07:16 | 52.38039 | -55.87012 | 37282 ft | 496 kts | 47° |
| 2026-04-28 07:16 | 52.41898 | -55.77573 | 37276 ft | 503 kts | 58° |
| 2026-04-28 07:17 | 52.45045 | -55.67314 | 37277 ft | 504 kts | 60° |
| 2026-04-28 07:17 | 52.48142 | -55.56978 | 37300 ft | 505 kts | 60° |
| 2026-04-28 07:18 | 52.51271 | -55.46627 | 37280 ft | 506 kts | 59° |
| 2026-04-28 07:18 | 52.54399 | -55.36339 | 37280 ft | 507 kts | 59° |
| 2026-04-28 07:19 | 52.57569 | -55.25896 | 37274 ft | 508 kts | 59° |
| 2026-04-28 07:19 | 52.60696 | -55.15547 | 37271 ft | 508 kts | 59° |
| 2026-04-28 07:20 | 52.63833 | -55.05113 | 37280 ft | 509 kts | 59° |
| 2026-04-28 07:20 | 52.66888 | -54.94906 | 37265 ft | 509 kts | 59° |
| 2026-04-28 07:21 | 52.70014 | -54.84417 | 37266 ft | 509 kts | 60° |
| 2026-04-28 07:21 | 52.73129 | -54.73915 | 37280 ft | 509 kts | 60° |
| 2026-04-28 07:22 | 52.77786 | -54.58131 | 37281 ft | 510 kts | 60° |
| 2026-04-28 07:22 | 52.80863 | -54.47648 | 37279 ft | 511 kts | 60° |
| 2026-04-28 07:23 | 52.83954 | -54.37067 | 37278 ft | 511 kts | 60° |
| 2026-04-28 07:23 | 52.87039 | -54.26460 | 37278 ft | 511 kts | 60° |
| 2026-04-28 07:24 | 52.90117 | -54.15829 | 37307 ft | 512 kts | 60° |
| 2026-04-28 07:24 | 52.93188 | -54.05174 | 37288 ft | 513 kts | 60° |
| 2026-04-28 07:25 | 52.96182 | -53.94739 | 37284 ft | 514 kts | 60° |
| 2026-04-28 07:25 | 52.99244 | -53.84020 | 37282 ft | 514 kts | 60° |
| 2026-04-28 07:26 | 53.02283 | -53.73331 | 37288 ft | 514 kts | 60° |
| 2026-04-28 07:26 | 53.05307 | -53.62646 | 37290 ft | 514 kts | 60° |
| 2026-04-28 07:27 | 53.08340 | -53.51880 | 37283 ft | 514 kts | 61° |
| 2026-04-28 07:27 | 53.11362 | -53.41105 | 37283 ft | 514 kts | 61° |
| 2026-04-28 07:28 | 53.14379 | -53.30298 | 37288 ft | 514 kts | 61° |
| 2026-04-28 07:28 | 53.17384 | -53.19482 | 37302 ft | 515 kts | 61° |
| 2026-04-28 07:29 | 53.20390 | -53.08615 | 37293 ft | 515 kts | 61° |
| 2026-04-28 07:29 | 53.23287 | -52.98092 | 37294 ft | 516 kts | 61° |
| 2026-04-28 07:30 | 53.26271 | -52.87201 | 37300 ft | 516 kts | 61° |
| 2026-04-28 07:30 | 53.29248 | -52.76286 | 37301 ft | 516 kts | 61° |
| 2026-04-28 07:31 | 53.32217 | -52.65349 | 37305 ft | 517 kts | 62° |
| 2026-04-28 07:31 | 53.35181 | -52.54376 | 37302 ft | 517 kts | 62° |
| 2026-04-28 07:32 | 53.38143 | -52.43358 | 37302 ft | 518 kts | 62° |
| 2026-04-28 07:32 | 53.41088 | -52.32349 | 37304 ft | 518 kts | 62° |
| 2026-04-28 07:33 | 53.44006 | -52.21388 | 37321 ft | 519 kts | 62° |
| 2026-04-28 07:33 | 53.46941 | -52.10314 | 37309 ft | 519 kts | 62° |
| 2026-04-28 07:34 | 53.49794 | -51.99496 | 37307 ft | 520 kts | 62° |
| 2026-04-28 07:34 | 53.52713 | -51.88372 | 37314 ft | 520 kts | 62° |
| 2026-04-28 07:35 | 53.55625 | -51.77221 | 37312 ft | 521 kts | 62° |
| 2026-04-28 07:35 | 53.58527 | -51.66053 | 37313 ft | 521 kts | 62° |
| 2026-04-28 07:36 | 53.61421 | -51.54859 | 37309 ft | 522 kts | 63° |
| 2026-04-28 07:36 | 53.64308 | -51.43636 | 37315 ft | 521 kts | 63° |
| 2026-04-28 07:37 | 53.67187 | -51.32390 | 37314 ft | 521 kts | 63° |
| 2026-04-28 07:37 | 53.70052 | -51.21144 | 37306 ft | 522 kts | 63° |
| 2026-04-28 07:38 | 53.72910 | -51.09865 | 37316 ft | 522 kts | 63° |
| 2026-04-28 07:38 | 53.75685 | -50.98863 | 37315 ft | 523 kts | 63° |
| 2026-04-28 07:39 | 53.78527 | -50.87533 | 37317 ft | 523 kts | 63° |
| 2026-04-28 07:39 | 53.81359 | -50.76187 | 37350 ft | 524 kts | 63° |
| 2026-04-28 07:40 | 53.84168 | -50.64875 | 37323 ft | 525 kts | 63° |
| 2026-04-28 07:40 | 53.86990 | -50.53453 | 37317 ft | 525 kts | 64° |
| 2026-04-28 07:41 | 53.89798 | -50.42025 | 37314 ft | 525 kts | 64° |
| 2026-04-28 07:41 | 53.92592 | -50.30598 | 37311 ft | 524 kts | 64° |
| 2026-04-28 07:42 | 53.95374 | -50.19160 | 37317 ft | 525 kts | 64° |
| 2026-04-28 07:42 | 53.98148 | -50.07696 | 37312 ft | 525 kts | 64° |
| 2026-04-28 07:43 | 54.00840 | -49.96558 | 37304 ft | 524 kts | 64° |
| 2026-04-28 07:43 | 54.03696 | -49.85158 | 37306 ft | 524 kts | 63° |
| 2026-04-28 07:44 | 54.06578 | -49.73774 | 37329 ft | 524 kts | 63° |
| 2026-04-28 07:44 | 54.09445 | -49.62340 | 37313 ft | 525 kts | 63° |
| 2026-04-28 07:45 | 54.12270 | -49.50961 | 37305 ft | 525 kts | 64° |
| 2026-04-28 07:45 | 54.15100 | -49.39477 | 37302 ft | 525 kts | 64° |
| 2026-04-28 07:46 | 54.17925 | -49.27957 | 37301 ft | 525 kts | 64° |
| 2026-04-28 07:46 | 54.20735 | -49.16447 | 37297 ft | 525 kts | 64° |
| 2026-04-28 07:47 | 54.23539 | -49.04898 | 37300 ft | 525 kts | 64° |
| 2026-04-28 07:47 | 54.26241 | -48.93710 | 37293 ft | 525 kts | 64° |
| 2026-04-28 07:48 | 54.29021 | -48.82142 | 37291 ft | 525 kts | 64° |
| 2026-04-28 07:48 | 54.31787 | -48.70569 | 37290 ft | 525 kts | 64° |
| 2026-04-28 07:49 | 54.34541 | -48.58981 | 37287 ft | 525 kts | 65° |
| 2026-04-28 07:49 | 54.37289 | -48.47361 | 37287 ft | 525 kts | 65° |
| 2026-04-28 07:50 | 54.40021 | -48.35744 | 37290 ft | 525 kts | 65° |
| 2026-04-28 07:50 | 54.42723 | -48.24191 | 37295 ft | 525 kts | 65° |
| 2026-04-28 07:51 | 54.45439 | -48.12520 | 37287 ft | 526 kts | 65° |
| 2026-04-28 07:51 | 54.48140 | -48.00842 | 37276 ft | 526 kts | 65° |
| 2026-04-28 07:52 | 54.50315 | -47.91396 | 37276 ft | 526 kts | 65° |
| 2026-04-28 07:52 | 54.52993 | -47.79704 | 37275 ft | 525 kts | 65° |
| 2026-04-28 07:53 | 54.55665 | -47.67977 | 37303 ft | 526 kts | 65° |
| 2026-04-28 07:53 | 54.58324 | -47.56240 | 37271 ft | 526 kts | 66° |
| 2026-04-28 07:54 | 54.60974 | -47.44474 | 37261 ft | 526 kts | 66° |
| 2026-04-28 07:54 | 54.63611 | -47.32705 | 37267 ft | 526 kts | 66° |
| 2026-04-28 07:55 | 54.66228 | -47.20958 | 37263 ft | 526 kts | 66° |
| 2026-04-28 07:55 | 54.68849 | -47.09125 | 37263 ft | 527 kts | 66° |
| 2026-04-28 07:56 | 54.71391 | -46.97585 | 37261 ft | 527 kts | 66° |
| 2026-04-28 07:56 | 54.73986 | -46.85734 | 37253 ft | 527 kts | 66° |
| 2026-04-28 07:57 | 54.76575 | -46.73847 | 37251 ft | 527 kts | 67° |
| 2026-04-28 07:57 | 54.79151 | -46.61949 | 37267 ft | 527 kts | 67° |
| 2026-04-28 07:58 | 54.81716 | -46.50032 | 37247 ft | 527 kts | 67° |
| 2026-04-28 07:58 | 54.84266 | -46.38116 | 37241 ft | 527 kts | 67° |
| 2026-04-28 07:59 | 54.86791 | -46.26247 | 37237 ft | 527 kts | 67° |
| 2026-04-28 07:59 | 54.89321 | -46.14286 | 37227 ft | 527 kts | 68° |
| 2026-04-28 08:00 | 54.91843 | -46.02294 | 37240 ft | 528 kts | 68° |
| 2026-04-28 08:00 | 54.94289 | -45.90591 | 37227 ft | 528 kts | 68° |
| 2026-04-28 08:01 | 54.96792 | -45.78548 | 37228 ft | 529 kts | 68° |
| 2026-04-28 08:01 | 54.99267 | -45.66566 | 37222 ft | 529 kts | 68° |
| 2026-04-28 08:02 | 55.01746 | -45.54491 | 37241 ft | 529 kts | 68° |
| 2026-04-28 08:02 | 55.04215 | -45.42393 | 37219 ft | 530 kts | 68° |
| 2026-04-28 08:03 | 55.06673 | -45.30275 | 37212 ft | 530 kts | 68° |
| 2026-04-28 08:03 | 55.09119 | -45.18138 | 37212 ft | 530 kts | 69° |
| 2026-04-28 08:04 | 55.11550 | -45.06007 | 37211 ft | 529 kts | 69° |
| 2026-04-28 08:04 | 55.13903 | -44.94193 | 37197 ft | 530 kts | 69° |
| 2026-04-28 08:05 | 55.16312 | -44.82021 | 37197 ft | 529 kts | 69° |
| 2026-04-28 08:05 | 55.18708 | -44.69837 | 37199 ft | 530 kts | 69° |
| 2026-04-28 08:06 | 55.21097 | -44.57614 | 37194 ft | 530 kts | 69° |
| 2026-04-28 08:06 | 55.23456 | -44.45467 | 37204 ft | 530 kts | 69° |
| 2026-04-28 08:07 | 55.25822 | -44.33208 | 37183 ft | 531 kts | 70° |
| 2026-04-28 08:07 | 55.28173 | -44.20947 | 37181 ft | 531 kts | 70° |
| 2026-04-28 08:08 | 55.30518 | -44.08640 | 37192 ft | 531 kts | 70° |
| 2026-04-28 08:08 | 55.32785 | -43.96664 | 37175 ft | 531 kts | 70° |
| 2026-04-28 08:09 | 55.35102 | -43.84350 | 37176 ft | 531 kts | 70° |
| 2026-04-28 08:09 | 55.37399 | -43.72058 | 37165 ft | 531 kts | 70° |
| 2026-04-28 08:10 | 55.39695 | -43.59692 | 37165 ft | 531 kts | 70° |
| 2026-04-28 08:10 | 55.41958 | -43.47423 | 37148 ft | 530 kts | 70° |
| 2026-04-28 08:11 | 55.44230 | -43.35026 | 37370 ft | 532 kts | 71° |
| 2026-04-28 08:11 | 55.45360 | -43.28825 | 37626 ft | 531 kts | 71° |
| 2026-04-28 08:11 | 55.46485 | -43.22634 | 37857 ft | 530 kts | 71° |
| 2026-04-28 08:12 | 55.47604 | -43.16452 | 38046 ft | 530 kts | 71° |
| 2026-04-28 08:12 | 55.48722 | -43.10260 | 38221 ft | 530 kts | 71° |
| 2026-04-28 08:12 | 55.49837 | -43.04060 | 38400 ft | 530 kts | 71° |
| 2026-04-28 08:12 | 55.50893 | -42.98173 | 38575 ft | 530 kts | 71° |
| 2026-04-28 08:13 | 55.52000 | -42.91976 | 38763 ft | 529 kts | 71° |
| 2026-04-28 08:13 | 55.53102 | -42.85788 | 38909 ft | 529 kts | 71° |
| 2026-04-28 08:13 | 55.54204 | -42.79581 | 39028 ft | 529 kts | 71° |
| 2026-04-28 08:13 | 55.55302 | -42.73372 | 39075 ft | 529 kts | 72° |
| 2026-04-28 08:14 | 55.57491 | -42.60936 | 39137 ft | 531 kts | 72° |
| 2026-04-28 08:14 | 55.59674 | -42.48444 | 39144 ft | 532 kts | 72° |
| 2026-04-28 08:15 | 55.61832 | -42.36012 | 39134 ft | 532 kts | 72° |
| 2026-04-28 08:15 | 55.63995 | -42.23462 | 39148 ft | 533 kts | 72° |
| 2026-04-28 08:16 | 55.66145 | -42.10897 | 39114 ft | 533 kts | 72° |
| 2026-04-28 08:16 | 55.68230 | -41.98628 | 39127 ft | 532 kts | 72° |
| 2026-04-28 08:17 | 55.70352 | -41.86059 | 39124 ft | 532 kts | 72° |
| 2026-04-28 08:17 | 55.72458 | -41.73489 | 39122 ft | 531 kts | 72° |
| 2026-04-28 08:18 | 55.74548 | -41.60925 | 39118 ft | 531 kts | 73° |
| 2026-04-28 08:18 | 55.76628 | -41.48329 | 39119 ft | 531 kts | 73° |
| 2026-04-28 08:19 | 55.78692 | -41.35740 | 39114 ft | 530 kts | 73° |
| 2026-04-28 08:19 | 55.80741 | -41.23152 | 39106 ft | 530 kts | 73° |
| 2026-04-28 08:20 | 55.82763 | -41.10637 | 39111 ft | 530 kts | 73° |
| 2026-04-28 08:20 | 55.84741 | -40.98310 | 39104 ft | 531 kts | 74° |
| 2026-04-28 08:21 | 55.86753 | -40.85664 | 39102 ft | 531 kts | 74° |
| 2026-04-28 08:21 | 55.88748 | -40.72980 | 39092 ft | 531 kts | 74° |
| 2026-04-28 08:22 | 55.90730 | -40.60336 | 39087 ft | 531 kts | 74° |
| 2026-04-28 08:22 | 55.92709 | -40.47648 | 39088 ft | 531 kts | 74° |
| 2026-04-28 08:23 | 55.94660 | -40.35024 | 39089 ft | 531 kts | 75° |
| 2026-04-28 08:23 | 55.96613 | -40.22296 | 39080 ft | 531 kts | 75° |
| 2026-04-28 08:24 | 55.98553 | -40.09560 | 39074 ft | 532 kts | 75° |
| 2026-04-28 08:24 | 56.00426 | -39.97139 | 39075 ft | 532 kts | 75° |
| 2026-04-28 08:25 | 56.02266 | -39.84328 | 39070 ft | 532 kts | 76° |
| 2026-04-28 08:26 | 56.04960 | -39.65057 | 39069 ft | 532 kts | 76° |
| 2026-04-28 08:26 | 56.06760 | -39.52210 | 39063 ft | 532 kts | 76° |
| 2026-04-28 08:27 | 56.08551 | -39.39352 | 39065 ft | 532 kts | 76° |
| 2026-04-28 08:27 | 56.10314 | -39.26558 | 39048 ft | 532 kts | 77° |
| 2026-04-28 08:28 | 56.12069 | -39.13689 | 39050 ft | 531 kts | 77° |
| 2026-04-28 08:28 | 56.13810 | -39.00815 | 39055 ft | 531 kts | 77° |
| 2026-04-28 08:29 | 56.15496 | -38.88245 | 39048 ft | 530 kts | 77° |
| 2026-04-28 08:29 | 56.17209 | -38.75376 | 39047 ft | 529 kts | 77° |
| 2026-04-28 08:30 | 56.18907 | -38.62497 | 39051 ft | 529 kts | 78° |
| 2026-04-28 08:30 | 56.20576 | -38.49727 | 39050 ft | 529 kts | 78° |
| 2026-04-28 08:31 | 56.22243 | -38.36861 | 39042 ft | 528 kts | 78° |
| 2026-04-28 08:31 | 56.23898 | -38.23973 | 39042 ft | 528 kts | 78° |
| 2026-04-28 08:32 | 56.25537 | -38.11092 | 39045 ft | 528 kts | 78° |
| 2026-04-28 08:32 | 56.27128 | -37.98482 | 39045 ft | 529 kts | 78° |
| 2026-04-28 08:33 | 56.28743 | -37.85564 | 39015 ft | 529 kts | 79° |
| 2026-04-28 08:33 | 56.30333 | -37.72726 | 39029 ft | 528 kts | 79° |
| 2026-04-28 08:34 | 56.31918 | -37.59804 | 39038 ft | 528 kts | 79° |
| 2026-04-28 08:34 | 56.33493 | -37.46854 | 39038 ft | 528 kts | 79° |
| 2026-04-28 08:35 | 56.35054 | -37.33884 | 39034 ft | 529 kts | 79° |
| 2026-04-28 08:35 | 56.36602 | -37.20913 | 39036 ft | 529 kts | 79° |
| 2026-04-28 08:36 | 56.38136 | -37.07927 | 39036 ft | 529 kts | 79° |
| 2026-04-28 08:36 | 56.39612 | -36.95315 | 39035 ft | 529 kts | 80° |
| 2026-04-28 08:37 | 56.41119 | -36.82318 | 39041 ft | 529 kts | 80° |
| 2026-04-28 08:37 | 56.42610 | -36.69321 | 39033 ft | 529 kts | 80° |
| 2026-04-28 08:38 | 56.44091 | -36.56289 | 39033 ft | 529 kts | 80° |
| 2026-04-28 08:38 | 56.45312 | -36.45444 | 39027 ft | 529 kts | 80° |
| 2026-04-28 08:39 | 56.46763 | -36.32444 | 39026 ft | 523 kts | 81° |
| 2026-04-28 08:39 | 56.48410 | -36.17524 | 39034 ft | 519 kts | 81° |
| 2026-04-28 08:40 | 56.49583 | -36.06776 | 39032 ft | 519 kts | 81° |
| 2026-04-28 08:40 | 56.50930 | -35.94320 | 39031 ft | 520 kts | 81° |
| 2026-04-28 08:41 | 56.52308 | -35.81462 | 39027 ft | 520 kts | 81° |
| 2026-04-28 08:41 | 56.53672 | -35.68592 | 39023 ft | 520 kts | 81° |
| 2026-04-28 08:42 | 56.55023 | -35.55715 | 39022 ft | 520 kts | 81° |
| 2026-04-28 08:42 | 56.56361 | -35.42827 | 39018 ft | 520 kts | 82° |
| 2026-04-28 08:43 | 56.57677 | -35.30012 | 39016 ft | 520 kts | 82° |
| 2026-04-28 08:43 | 56.58988 | -35.17108 | 39010 ft | 520 kts | 82° |
| 2026-04-28 08:44 | 56.60288 | -35.04181 | 39017 ft | 519 kts | 82° |
| 2026-04-28 08:44 | 56.61538 | -34.91606 | 39014 ft | 518 kts | 82° |
| 2026-04-28 08:45 | 56.62802 | -34.78741 | 39008 ft | 517 kts | 82° |
| 2026-04-28 08:45 | 56.64053 | -34.65874 | 39016 ft | 517 kts | 82° |
| 2026-04-28 08:46 | 56.65289 | -34.53022 | 39008 ft | 516 kts | 83° |
| 2026-04-28 08:46 | 56.66503 | -34.40246 | 39011 ft | 515 kts | 83° |
| 2026-04-28 08:47 | 56.67708 | -34.27417 | 39005 ft | 515 kts | 83° |
| 2026-04-28 08:47 | 56.68900 | -34.14583 | 39008 ft | 514 kts | 83° |
| 2026-04-28 08:48 | 56.70077 | -34.01751 | 39011 ft | 514 kts | 84° |
| 2026-04-28 08:48 | 56.71213 | -33.89227 | 39005 ft | 514 kts | 84° |
| 2026-04-28 08:49 | 56.72364 | -33.76386 | 39011 ft | 514 kts | 84° |
| 2026-04-28 08:49 | 56.73500 | -33.63561 | 39012 ft | 514 kts | 84° |
| 2026-04-28 08:50 | 56.74626 | -33.50676 | 38982 ft | 515 kts | 84° |
| 2026-04-28 08:50 | 56.75740 | -33.37785 | 39008 ft | 515 kts | 85° |
| 2026-04-28 08:51 | 56.76841 | -33.24882 | 39002 ft | 515 kts | 85° |
| 2026-04-28 08:51 | 56.77929 | -33.11958 | 39010 ft | 516 kts | 85° |
| 2026-04-28 08:52 | 56.78972 | -32.99422 | 39006 ft | 516 kts | 85° |
| 2026-04-28 08:52 | 56.80036 | -32.86452 | 39011 ft | 517 kts | 85° |
| 2026-04-28 08:53 | 56.81088 | -32.73476 | 39006 ft | 517 kts | 85° |